createdAt,value
2023-02-26T00:01:51.493Z,51.30
2023-02-26T00:04:20.200Z,39.50
2023-02-26T00:06:56.749Z,37.80
2023-02-26T00:09:26.734Z,55.20
2023-02-26T00:11:55.890Z,42.80
2023-02-26T00:14:25.035Z,50.00
2023-02-26T00:17:16.580Z,50.80
2023-02-26T00:19:50.699Z,46.10
2023-02-26T00:22:20.739Z,45.10
2023-02-26T00:24:49.225Z,46.00
2023-02-26T00:27:17.771Z,49.60
2023-02-26T00:29:46.655Z,52.30
2023-02-26T00:32:18.286Z,42.80
2023-02-26T00:34:47.860Z,41.70
2023-02-26T00:37:29.311Z,55.80
2023-02-26T00:40:07.918Z,48.00
2023-02-26T00:42:38.665Z,46.30
2023-02-26T00:45:09.317Z,56.90
2023-02-26T00:47:56.287Z,59.20
2023-02-26T00:50:26.312Z,55.00
2023-02-26T00:53:22.389Z,67.30
2023-02-26T00:55:51.836Z,44.60
2023-02-26T00:58:21.644Z,45.50
2023-02-26T01:00:50.335Z,47.50
2023-02-26T01:03:22.077Z,44.00
2023-02-26T01:05:51.354Z,58.30
2023-02-26T01:08:24.866Z,42.30
2023-02-26T01:10:54.018Z,54.00
2023-02-26T01:13:23.187Z,46.60
2023-02-26T01:15:55.775Z,41.20
2023-02-26T01:18:27.572Z,43.40
2023-02-26T01:21:05.722Z,53.90
2023-02-26T01:23:38.630Z,43.50
2023-02-26T01:26:29.553Z,48.00
2023-02-26T01:28:58.397Z,50.40
2023-02-26T01:31:42.543Z,39.30
2023-02-26T01:34:20.957Z,56.30
2023-02-26T01:36:53.832Z,42.10
2023-02-26T01:39:53.836Z,43.70
2023-02-26T01:42:24.248Z,51.00
2023-02-26T01:45:01.628Z,40.60
2023-02-26T01:47:36.344Z,50.60
2023-02-26T01:50:19.518Z,47.70
2023-02-26T01:52:48.644Z,53.10
2023-02-26T01:55:21.986Z,53.80
2023-02-26T01:57:53.172Z,49.50
2023-02-26T02:00:21.928Z,49.30
2023-02-26T02:02:51.462Z,52.00
2023-02-26T02:05:44.087Z,41.40
2023-02-26T02:08:14.366Z,47.50
2023-02-26T02:10:45.899Z,51.30
2023-02-26T02:13:28.629Z,48.30
2023-02-26T02:18:54.868Z,59.80
2023-02-26T02:21:51.396Z,45.80
2023-02-26T02:24:42.273Z,53.70
2023-02-26T02:27:37.519Z,46.00
2023-02-26T02:30:25.745Z,48.20
2023-02-26T02:33:05.893Z,51.20
2023-02-26T02:35:42.520Z,57.90
2023-02-26T02:38:16.426Z,49.90
2023-02-26T02:40:50.192Z,53.40
2023-02-26T02:43:24.618Z,60.10
2023-02-26T02:46:12.524Z,54.60
2023-02-26T02:48:44.096Z,46.20
2023-02-26T02:51:25.876Z,48.70
2023-02-26T02:53:57.716Z,52.90
2023-02-26T02:56:29.598Z,48.00
2023-02-26T02:59:03.303Z,49.90
2023-02-26T03:01:31.856Z,51.40
2023-02-26T03:04:04.641Z,54.00
2023-02-26T03:06:33.391Z,43.90
2023-02-26T03:09:08.048Z,50.40
2023-02-26T03:11:37.553Z,48.90
2023-02-26T03:14:06.958Z,49.40
2023-02-26T03:17:04.654Z,53.40
2023-02-26T03:19:53.938Z,47.30
2023-02-26T03:22:27.434Z,47.80
2023-02-26T03:25:16.477Z,48.50
2023-02-26T03:28:09.872Z,62.90
2023-02-26T03:31:02.123Z,56.20
2023-02-26T03:33:40.165Z,55.30
2023-02-26T03:36:11.362Z,54.70
2023-02-26T03:38:54.970Z,49.40
2023-02-26T03:41:36.928Z,57.00
2023-02-26T03:44:34.245Z,53.00
2023-02-26T03:47:07.227Z,52.00
2023-02-26T03:49:40.035Z,52.50
2023-02-26T03:52:08.780Z,45.40
2023-02-26T03:55:04.976Z,43.20
2023-02-26T03:57:56.566Z,71.50
2023-02-26T04:00:35.508Z,56.60
2023-02-26T04:03:10.131Z,60.30
2023-02-26T04:05:40.932Z,55.40
2023-02-26T04:08:09.978Z,46.30
2023-02-26T04:10:43.571Z,49.50
2023-02-26T04:13:15.358Z,51.80
2023-02-26T04:15:44.847Z,64.90
2023-02-26T04:18:13.383Z,76.90
2023-02-26T04:20:42.132Z,59.10
2023-02-26T04:23:11.949Z,69.90
2023-02-26T04:25:42.244Z,50.20
2023-02-26T04:28:12.204Z,42.60
2023-02-26T04:30:42.159Z,49.90
2023-02-26T04:33:13.681Z,45.30
2023-02-26T04:35:42.986Z,42.30
2023-02-26T04:38:12.282Z,50.50
2023-02-26T04:40:41.227Z,48.50
2023-02-26T04:43:11.252Z,48.70
2023-02-26T04:45:47.224Z,40.70
2023-02-26T04:48:17.925Z,40.00
2023-02-26T04:50:49.183Z,39.20
2023-02-26T04:53:19.438Z,37.20
2023-02-26T04:55:50.763Z,35.70
2023-02-26T04:58:24.385Z,32.30
2023-02-26T05:00:55.158Z,37.30
2023-02-26T05:03:23.981Z,39.60
2023-02-26T05:05:52.451Z,30.60
2023-02-26T05:08:23.603Z,40.30
2023-02-26T05:10:53.981Z,47.50
2023-02-26T05:13:22.568Z,36.40
2023-02-26T05:15:54.182Z,46.90
2023-02-26T05:18:22.996Z,46.20
2023-02-26T05:20:55.839Z,40.80
2023-02-26T05:23:25.094Z,48.10
2023-02-26T05:25:57.669Z,42.90
2023-02-26T05:30:57.420Z,31.60
2023-02-26T05:33:27.103Z,43.30
2023-02-26T05:35:58.000Z,40.30
2023-02-26T05:38:26.659Z,41.30
2023-02-26T05:40:58.033Z,36.40
2023-02-26T05:43:27.043Z,38.90
2023-02-26T05:45:55.876Z,36.40
2023-02-26T05:48:24.585Z,37.30
2023-02-26T05:50:53.417Z,39.40
2023-02-26T05:53:22.144Z,41.90
2023-02-26T05:55:51.022Z,43.50
2023-02-26T05:58:21.528Z,46.20
2023-02-26T06:00:50.731Z,36.50
2023-02-26T06:03:20.406Z,43.10
2023-02-26T06:05:49.173Z,38.90
2023-02-26T06:08:18.762Z,34.40
2023-02-26T06:10:47.264Z,36.30
2023-02-26T06:13:16.602Z,29.80
2023-02-26T06:15:45.273Z,35.60
2023-02-26T06:18:13.910Z,35.90
2023-02-26T06:20:45.231Z,25.10
2023-02-26T06:23:15.402Z,20.40
2023-02-26T06:25:44.347Z,27.00
2023-02-26T06:28:13.880Z,31.70
2023-02-26T06:30:42.654Z,30.90
2023-02-26T06:33:11.333Z,31.10
2023-02-26T06:35:40.376Z,29.20
2023-02-26T06:38:10.866Z,32.20
2023-02-26T06:40:40.412Z,30.20
2023-02-26T06:43:09.022Z,33.80
2023-02-26T06:45:39.910Z,39.00
2023-02-26T06:48:09.380Z,29.80
2023-02-26T06:50:38.809Z,28.90
2023-02-26T06:53:08.134Z,22.10
2023-02-26T06:55:44.027Z,24.40
2023-02-26T06:58:12.863Z,25.00
2023-02-26T07:00:42.480Z,28.40
2023-02-26T07:03:15.940Z,25.40
2023-02-26T07:05:45.477Z,17.40
2023-02-26T07:08:14.293Z,19.50
2023-02-26T07:10:45.433Z,26.10
2023-02-26T07:13:16.326Z,21.30
2023-02-26T07:15:46.331Z,20.30
2023-02-26T07:18:16.531Z,18.90
2023-02-26T07:20:45.911Z,17.30
2023-02-26T07:23:14.591Z,17.50
2023-02-26T07:25:43.525Z,12.30
2023-02-26T07:28:18.157Z,13.20
2023-02-26T07:30:51.822Z,10.30
2023-02-26T07:33:20.851Z,9.70
2023-02-26T07:35:49.369Z,12.00
2023-02-26T07:38:19.635Z,10.80
2023-02-26T07:40:49.954Z,17.00
2023-02-26T07:43:19.123Z,13.60
2023-02-26T07:45:53.178Z,25.80
2023-02-26T07:48:21.720Z,12.00
2023-02-26T07:51:03.035Z,11.80
2023-02-26T07:53:33.423Z,13.10
2023-02-26T07:56:06.538Z,15.40
2023-02-26T07:58:36.511Z,9.70
2023-02-26T08:01:05.234Z,13.80
2023-02-26T08:03:33.782Z,11.70
2023-02-26T08:06:03.414Z,9.20
2023-02-26T08:08:34.850Z,15.70
2023-02-26T08:11:03.598Z,13.50
2023-02-26T08:13:32.340Z,21.90
2023-02-26T08:16:01.038Z,37.30
2023-02-26T08:18:32.507Z,25.80
2023-02-26T08:21:02.069Z,19.20
2023-02-26T08:23:31.270Z,129.30
2023-02-26T08:26:11.433Z,270.10
2023-02-26T08:28:40.321Z,47.40
2023-02-26T08:31:11.566Z,22.50
2023-02-26T08:33:41.283Z,30.10
2023-02-26T08:36:10.238Z,24.60
2023-02-26T08:38:40.864Z,143.80
2023-02-26T08:41:10.603Z,22.10
2023-02-26T08:43:39.390Z,19.60
2023-02-26T08:46:08.427Z,10.30
2023-02-26T08:48:39.005Z,8.00
2023-02-26T08:51:08.053Z,9.40
2023-02-26T08:53:48.442Z,7.90
2023-02-26T08:56:24.795Z,7.00
2023-02-26T08:58:53.086Z,8.30
2023-02-26T09:01:21.514Z,7.30
2023-02-26T09:03:49.648Z,6.30
2023-02-26T09:06:17.810Z,7.40
2023-02-26T09:08:48.201Z,14.80
2023-02-26T09:11:17.577Z,6.10
2023-02-26T09:13:46.128Z,6.60
2023-02-26T09:16:14.946Z,5.50
2023-02-26T09:18:46.884Z,7.20
2023-02-26T09:21:15.768Z,6.70
2023-02-26T09:23:45.492Z,12.10
2023-02-26T09:26:14.377Z,7.60
2023-02-26T09:28:43.165Z,6.90
2023-02-26T09:31:11.998Z,6.00
2023-02-26T09:33:40.684Z,11.80
2023-02-26T09:36:10.253Z,10.40
2023-02-26T09:38:38.603Z,11.10
2023-02-26T09:41:22.827Z,11.10
2023-02-26T09:44:04.057Z,56.40
2023-02-26T09:46:57.309Z,123.80
2023-02-26T09:49:53.505Z,57.30
2023-02-26T09:52:33.996Z,21.00
2023-02-26T09:55:15.736Z,14.40
2023-02-26T09:57:46.764Z,10.10
2023-02-26T10:00:20.788Z,7.40
2023-02-26T10:03:27.045Z,6.30
2023-02-26T10:06:13.439Z,9.70
2023-02-26T10:09:21.320Z,13.30
2023-02-26T10:12:10.883Z,11.80
2023-02-26T10:14:53.316Z,9.20
2023-02-26T10:17:53.355Z,8.60
2023-02-26T10:20:37.112Z,13.00
2023-02-26T10:23:36.367Z,5.60
2023-02-26T10:26:22.739Z,7.20
2023-02-26T10:28:56.960Z,6.00
2023-02-26T10:31:51.206Z,8.80
2023-02-26T10:34:37.339Z,4.60
2023-02-26T10:37:28.280Z,5.90
2023-02-26T10:40:29.361Z,4.00
2023-02-26T10:43:23.619Z,4.30
2023-02-26T10:46:08.180Z,8.10
2023-02-26T10:48:55.714Z,6.70
2023-02-26T10:51:26.400Z,5.70
2023-02-26T10:54:00.384Z,4.20
2023-02-26T10:56:33.610Z,3.50
2023-02-26T10:59:08.811Z,5.70
2023-02-26T11:01:37.499Z,5.30
2023-02-26T11:04:13.119Z,4.70
2023-02-26T11:07:05.409Z,4.30
2023-02-26T11:09:39.851Z,4.20
2023-02-26T11:12:13.793Z,11.70
2023-02-26T11:14:43.223Z,31.60
2023-02-26T11:17:14.720Z,18.00
2023-02-26T11:19:50.640Z,126.00
2023-02-26T11:22:19.517Z,90.10
2023-02-26T11:24:49.710Z,163.40
2023-02-26T11:27:20.831Z,107.30
2023-02-26T11:29:58.470Z,50.90
2023-02-26T11:32:32.552Z,12.00
2023-02-26T11:35:08.687Z,26.30
2023-02-26T11:40:18.343Z,9.80
2023-02-26T11:42:59.910Z,23.80
2023-02-26T11:45:28.479Z,206.00
2023-02-26T11:48:08.326Z,71.70
2023-02-26T11:50:45.604Z,28.20
2023-02-26T11:53:50.751Z,10.40
2023-02-26T11:56:44.103Z,6.70
2023-02-26T11:59:24.501Z,8.60
2023-02-26T12:01:53.514Z,9.80
2023-02-26T12:04:26.210Z,5.70
2023-02-26T12:06:56.132Z,5.10
2023-02-26T12:09:25.491Z,8.60
2023-02-26T12:12:10.886Z,9.90
2023-02-26T12:14:55.347Z,4.90
2023-02-26T12:17:47.365Z,5.80
2023-02-26T12:20:20.227Z,9.20
2023-02-26T12:23:09.789Z,5.90
2023-02-26T12:26:18.886Z,10.00
2023-02-26T12:28:58.857Z,5.50
2023-02-26T12:31:32.791Z,5.50
2023-02-26T12:34:15.670Z,7.40
2023-02-26T12:36:53.375Z,5.70
2023-02-26T12:39:49.807Z,6.80
2023-02-26T12:42:25.793Z,3.70
2023-02-26T12:45:00.843Z,6.20
2023-02-26T12:47:44.614Z,5.00
2023-02-26T12:50:45.762Z,6.40
2023-02-26T12:53:33.374Z,6.30
2023-02-26T12:56:25.543Z,5.60
2023-02-26T13:02:00.861Z,9.20
2023-02-26T13:04:42.672Z,13.50
2023-02-26T13:07:38.529Z,19.10
2023-02-26T13:10:16.009Z,9.70
2023-02-26T13:12:48.376Z,7.30
2023-02-26T13:15:44.819Z,8.30
2023-02-26T13:18:31.723Z,13.70
2023-02-26T13:21:05.079Z,9.30
2023-02-26T13:23:47.291Z,12.60
2023-02-26T13:26:16.764Z,7.70
2023-02-26T13:29:00.960Z,9.80
2023-02-26T13:31:54.976Z,9.30
2023-02-26T13:34:42.670Z,17.70
2023-02-26T13:37:22.745Z,14.90
2023-02-26T13:40:08.446Z,14.60
2023-02-26T13:43:09.979Z,9.90
2023-02-26T13:46:07.593Z,30.60
2023-02-26T13:48:36.844Z,14.20
2023-02-26T13:51:14.605Z,55.90
2023-02-26T13:53:51.410Z,56.90
2023-02-26T13:56:28.909Z,42.50
2023-02-26T13:59:03.318Z,34.80
2023-02-26T14:01:33.745Z,30.00
2023-02-26T14:04:15.010Z,12.30
2023-02-26T14:06:48.807Z,13.10
2023-02-26T14:09:24.204Z,15.60
2023-02-26T14:12:01.238Z,16.80
2023-02-26T14:14:40.942Z,19.50
2023-02-26T14:17:15.010Z,24.10
2023-02-26T14:19:55.032Z,21.70
2023-02-26T14:22:31.608Z,28.70
2023-02-26T14:25:00.494Z,21.90
2023-02-26T14:27:46.903Z,23.00
2023-02-26T14:30:35.018Z,37.60
2023-02-26T14:33:06.026Z,56.50
2023-02-26T14:35:43.974Z,50.20
2023-02-26T14:38:15.181Z,27.30
2023-02-26T14:40:48.342Z,17.90
2023-02-26T14:43:39.962Z,15.20
2023-02-26T14:46:09.810Z,17.50
2023-02-26T14:48:39.513Z,21.40
2023-02-26T14:51:28.553Z,18.60
2023-02-26T14:54:12.993Z,17.30
2023-02-26T14:57:12.904Z,21.20
2023-02-26T14:59:56.681Z,16.00
2023-02-26T15:02:59.479Z,15.70
2023-02-26T15:05:41.169Z,27.80
2023-02-26T15:08:36.728Z,20.30
2023-02-26T15:11:21.404Z,15.60
2023-02-26T15:13:59.757Z,17.90
2023-02-26T15:16:47.189Z,18.40
2023-02-26T15:19:28.372Z,49.40
2023-02-26T15:22:20.657Z,22.30
2023-02-26T15:24:49.516Z,24.70
2023-02-26T15:27:19.529Z,26.90
2023-02-26T15:29:50.565Z,23.00
2023-02-26T15:32:30.452Z,23.30
2023-02-26T15:35:02.070Z,27.80
2023-02-26T15:37:35.469Z,31.60
2023-02-26T15:40:06.699Z,24.70
2023-02-26T15:42:39.360Z,30.20
2023-02-26T15:45:23.059Z,33.10
2023-02-26T15:48:00.650Z,42.00
2023-02-26T15:50:30.278Z,42.90
2023-02-26T15:53:01.249Z,50.00
2023-02-26T15:55:35.940Z,45.00
2023-02-26T15:58:07.041Z,58.10
2023-02-26T16:00:36.823Z,60.60
2023-02-26T16:03:10.098Z,85.30
2023-02-26T16:05:39.317Z,82.10
2023-02-26T16:08:12.047Z,52.90
2023-02-26T16:10:42.051Z,57.70
2023-02-26T16:13:14.838Z,118.30
2023-02-26T16:15:47.531Z,165.40
2023-02-26T16:18:18.410Z,94.50
2023-02-26T16:20:48.733Z,43.50
2023-02-26T16:23:22.322Z,19.60
2023-02-26T16:28:22.570Z,13.90
2023-02-26T16:30:54.921Z,15.00
2023-02-26T16:33:25.597Z,22.10
2023-02-26T16:36:18.062Z,11.30
2023-02-26T16:39:01.683Z,16.30
2023-02-26T16:41:35.399Z,23.20
2023-02-26T16:44:38.281Z,21.10
2023-02-26T16:47:08.656Z,22.00
2023-02-26T16:49:38.036Z,31.00
2023-02-26T16:52:06.994Z,24.10
2023-02-26T16:54:38.569Z,30.10
2023-02-26T16:57:17.576Z,34.00
2023-02-26T16:59:53.579Z,35.40
2023-02-26T17:02:24.972Z,26.40
2023-02-26T17:05:00.288Z,19.80
2023-02-26T17:07:34.302Z,18.60
2023-02-26T17:10:20.881Z,18.20
2023-02-26T17:12:51.121Z,25.70
2023-02-26T17:15:36.497Z,34.40
2023-02-26T17:18:10.017Z,24.50
2023-02-26T17:20:40.695Z,31.20
2023-02-26T17:23:09.541Z,36.10
2023-02-26T17:25:40.330Z,44.20
2023-02-26T17:28:18.014Z,53.30
2023-02-26T17:30:46.861Z,57.00
2023-02-26T17:33:15.715Z,43.80
2023-02-26T17:35:44.749Z,46.60
2023-02-26T17:38:14.612Z,35.10
2023-02-26T17:40:45.564Z,26.30
2023-02-26T17:43:14.870Z,20.60
2023-02-26T17:45:44.366Z,21.40
2023-02-26T17:48:16.325Z,28.50
2023-02-26T17:50:55.613Z,44.70
2023-02-26T17:53:27.771Z,78.30
2023-02-26T17:55:56.941Z,62.30
2023-02-26T17:58:32.304Z,46.80
2023-02-26T18:01:03.061Z,59.90
2023-02-26T18:03:32.249Z,47.50
2023-02-26T18:06:01.329Z,64.60
2023-02-26T18:08:32.312Z,41.10
2023-02-26T18:11:03.534Z,26.20
2023-02-26T18:13:33.029Z,22.80
2023-02-26T18:16:02.525Z,33.30
2023-02-26T18:18:33.968Z,27.70
2023-02-26T18:21:02.981Z,29.80
2023-02-26T18:23:34.971Z,24.20
2023-02-26T18:26:03.850Z,28.70
2023-02-26T18:28:33.267Z,40.10
2023-02-26T18:31:08.927Z,52.50
2023-02-26T18:33:41.757Z,61.00
2023-02-26T18:36:24.195Z,69.80
2023-02-26T18:38:54.928Z,103.80
2023-02-26T18:41:25.155Z,96.30
2023-02-26T18:43:54.390Z,65.80
2023-02-26T18:46:27.264Z,74.10
2023-02-26T18:48:56.782Z,70.70
2023-02-26T18:51:30.697Z,113.70
2023-02-26T18:53:59.516Z,112.80
2023-02-26T18:56:29.059Z,81.50
2023-02-26T18:58:58.126Z,85.50
2023-02-26T19:01:30.544Z,64.70
2023-02-26T19:03:59.824Z,51.80
2023-02-26T19:06:29.083Z,59.00
2023-02-26T19:09:02.955Z,105.00
2023-02-26T19:11:31.748Z,129.10
2023-02-26T19:14:01.519Z,85.30
2023-02-26T19:16:35.337Z,50.60
2023-02-26T19:19:11.971Z,43.60
2023-02-26T19:21:41.880Z,59.80
2023-02-26T19:24:11.795Z,75.20
2023-02-26T19:26:42.483Z,55.50
2023-02-26T19:29:16.737Z,44.10
2023-02-26T19:31:46.342Z,46.80
2023-02-26T19:34:15.173Z,63.20
2023-02-26T19:36:48.554Z,54.50
2023-02-26T19:39:18.895Z,51.40
2023-02-26T19:41:51.035Z,72.00
2023-02-26T19:44:20.483Z,77.60
2023-02-26T19:46:49.144Z,65.30
2023-02-26T19:49:18.398Z,61.30
2023-02-26T19:51:46.924Z,46.90
2023-02-26T19:54:15.689Z,62.10
2023-02-26T19:56:44.650Z,72.00
2023-02-26T19:59:13.386Z,82.20
2023-02-26T20:01:44.376Z,81.90
2023-02-26T20:04:14.050Z,87.90
2023-02-26T20:06:44.469Z,114.00
2023-02-26T20:09:17.387Z,131.30
2023-02-26T20:11:47.497Z,154.10
2023-02-26T20:14:16.737Z,150.70
2023-02-26T20:16:47.335Z,109.70
2023-02-26T20:19:16.254Z,49.40
2023-02-26T20:21:49.757Z,30.20
2023-02-26T20:24:20.169Z,32.20
2023-02-26T20:26:49.240Z,46.50
2023-02-26T20:29:18.758Z,40.50
2023-02-26T20:31:50.411Z,37.60
2023-02-26T20:34:19.648Z,39.50
2023-02-26T20:36:50.184Z,54.90
2023-02-26T20:39:39.570Z,63.70
2023-02-26T20:42:09.060Z,83.40
2023-02-26T20:44:37.776Z,49.50
2023-02-26T20:47:06.498Z,81.20
2023-02-26T20:49:35.257Z,70.40
2023-02-26T20:52:04.830Z,58.10
2023-02-26T20:54:34.347Z,28.80
2023-02-26T20:57:03.443Z,42.40
2023-02-26T20:59:33.010Z,32.80
2023-02-26T21:02:08.503Z,26.80
2023-02-26T21:04:38.341Z,28.60
2023-02-26T21:07:22.188Z,44.90
2023-02-26T21:09:55.751Z,54.80
2023-02-26T21:12:24.582Z,60.30
2023-02-26T21:14:55.955Z,43.50
2023-02-26T21:17:25.338Z,51.50
2023-02-26T21:19:54.095Z,60.20
2023-02-26T21:22:24.255Z,78.80
2023-02-26T21:24:54.975Z,114.80
2023-02-26T21:27:24.194Z,155.20
2023-02-26T21:29:52.842Z,92.20
2023-02-26T21:32:21.597Z,112.40
2023-02-26T21:34:50.640Z,109.60
2023-02-26T21:37:20.782Z,81.50
2023-02-26T21:39:49.784Z,90.00
2023-02-26T21:42:18.628Z,83.80
2023-02-26T21:44:48.630Z,64.30
2023-02-26T21:47:18.321Z,52.60
2023-02-26T21:49:49.566Z,41.70
2023-02-26T21:52:18.554Z,46.80
2023-02-26T21:54:47.542Z,48.50
2023-02-26T21:57:15.560Z,64.10
2023-02-26T21:59:43.582Z,131.30
2023-02-26T22:02:12.212Z,81.30
2023-02-26T22:04:42.321Z,71.50
2023-02-26T22:07:11.612Z,118.30
2023-02-26T22:09:40.149Z,112.60
2023-02-26T22:12:08.809Z,138.00
2023-02-26T22:14:37.373Z,104.70
2023-02-26T22:17:06.352Z,119.00
2023-02-26T22:19:36.996Z,115.80
2023-02-26T22:22:05.580Z,114.70
2023-02-26T22:24:35.190Z,105.20
2023-02-26T22:27:04.128Z,96.20
2023-02-26T22:29:34.284Z,93.20
2023-02-26T22:32:03.110Z,111.40
2023-02-26T22:34:33.924Z,100.00
2023-02-26T22:37:02.540Z,88.80
2023-02-26T22:39:31.446Z,82.70
2023-02-26T22:42:00.152Z,46.90
2023-02-26T22:44:29.033Z,46.10
2023-02-26T22:46:58.083Z,44.20
2023-02-26T22:49:26.920Z,34.40
2023-02-26T22:51:56.488Z,45.00
2023-02-26T22:54:25.700Z,41.00
2023-02-26T22:56:54.589Z,49.30
2023-02-26T22:59:23.478Z,58.20
2023-02-26T23:01:52.070Z,80.80
2023-02-26T23:04:20.881Z,85.30
2023-02-26T23:06:49.508Z,89.80
2023-02-26T23:09:18.473Z,102.30
2023-02-26T23:11:47.471Z,119.80
2023-02-26T23:14:23.775Z,140.20
2023-02-26T23:16:52.286Z,119.50
2023-02-26T23:19:21.164Z,129.60
2023-02-26T23:21:50.150Z,96.40
2023-02-26T23:24:18.895Z,130.60
2023-02-26T23:26:51.747Z,123.20
2023-02-26T23:29:24.567Z,94.40
2023-02-26T23:31:53.429Z,113.00
2023-02-26T23:34:22.243Z,122.40
2023-02-26T23:36:51.361Z,97.30
2023-02-26T23:39:20.473Z,148.80
2023-02-26T23:41:49.179Z,127.60
2023-02-26T23:44:18.079Z,112.40
2023-02-26T23:46:46.725Z,103.20
2023-02-26T23:49:19.746Z,95.40
2023-02-26T23:51:49.566Z,98.00
2023-02-26T23:54:18.240Z,50.20
2023-02-26T23:56:48.504Z,63.20
2023-02-26T23:59:18.693Z,50.70
